メインページ
METAR-TAF:

METAR-TAF

空港 :

ホニアラ国際空港

ホニアラ, ガダルカナル島, ソロモン諸島

緯度: 09-25S, 経度: 160-03E, 海抜: 8m

現時点の気象観測

当レポートは33分前の20:00(UTC)に作成
無風
気温 26°C
湿度 100%
気圧 1006 hPa
視程10km以上
高度1500ftの雲はほとんどない
高度30000ftの雲は散在している
煙霧

METAR: AGGH 152000Z 00000KT 9999 HZ FEW015 SCT300 26/26 Q1006

時間: 07:33 (20:33 UTC)

予報

当レポートは3時間3分前の17:30(UTC)に作成
予報は15日の 18時(UTC)から 16日の 18時(UTC)まで有効
の風 8kt
視程10km以上
高度1700ftの雲は散在している
高度2800ftの雲は散在している
確率 40%
間 INからTE UTC
視程: 1004m
高度1600ftの千切れ雲あり
高度1700ftの雲はほとんどない, 積乱雲.

TAF: AGGH 151730Z 1518/1618 36008KT 9999 SCT017 SCT028 PROB40 INTER 1601/1608 5000 TSSH BKN016 FEW017CB T 25 28 31 32 Q 1004 1006 1006 1004

4,000以上の空港の気象観測と天気予報(METAR報とTAF報)

利用可能な観測所は地図上に黄色い丸と赤い丸で示す。

丸の上にカーソルを重ねると観測所名を参照できる。

次にクリックすると気象観測と天気予報を参照できる。

マップの切り替え:黒色「×」印の緑ボタンをクリックして拡大、「-」印の緑ボタンをクリックして縮小、緑色の三角印をクリックして隣りの地図に切り替え


METAR-TAF: